createdAt,value
2022-11-05T00:01:29.835Z,0.60
2022-11-05T00:04:50.984Z,0.52
2022-11-05T00:08:12.621Z,0.57
2022-11-05T00:11:18.239Z,0.50
2022-11-05T00:14:40.027Z,0.40
2022-11-05T00:17:43.609Z,0.40
2022-11-05T00:20:46.384Z,0.45
2022-11-05T00:24:07.677Z,0.60
2022-11-05T00:27:10.899Z,0.50
2022-11-05T00:30:19.459Z,0.60
2022-11-05T00:33:22.287Z,0.40
2022-11-05T00:36:25.073Z,0.70
2022-11-05T00:39:27.984Z,0.87
2022-11-05T00:42:49.337Z,0.63
2022-11-05T00:45:52.180Z,0.70
2022-11-05T00:49:17.997Z,0.88
2022-11-05T00:52:39.371Z,1.10
2022-11-05T00:55:45.104Z,1.10
2022-11-05T00:58:49.117Z,1.20
2022-11-05T01:01:52.209Z,1.20
2022-11-05T01:04:55.283Z,0.82
2022-11-05T01:07:58.317Z,1.30
2022-11-05T01:11:12.497Z,1.30
2022-11-05T01:14:16.469Z,1.20
2022-11-05T01:17:19.419Z,1.40
2022-11-05T01:20:22.707Z,1.25
2022-11-05T01:23:25.576Z,1.10
2022-11-05T01:26:28.521Z,1.10
2022-11-05T01:29:31.438Z,0.90
2022-11-05T01:32:35.778Z,0.80
2022-11-05T01:35:39.612Z,0.80
2022-11-05T01:38:42.687Z,0.85
2022-11-05T01:41:45.472Z,0.80
2022-11-05T01:45:01.891Z,0.90
2022-11-05T01:48:34.715Z,0.70
2022-11-05T01:51:37.642Z,0.93
2022-11-05T01:54:40.764Z,1.50
2022-11-05T01:57:43.598Z,1.40
2022-11-05T02:00:46.534Z,1.27
2022-11-05T02:03:51.612Z,1.35
2022-11-05T02:06:54.791Z,1.40
2022-11-05T02:10:07.825Z,1.50
2022-11-05T02:13:10.757Z,1.50
2022-11-05T02:16:30.156Z,1.70
2022-11-05T02:19:39.125Z,1.77
2022-11-05T02:23:08.301Z,1.77
2022-11-05T02:26:36.209Z,2.20
2022-11-05T02:30:03.929Z,2.37
2022-11-05T02:33:22.657Z,2.13
2022-11-05T02:36:47.435Z,2.33
2022-11-05T02:39:53.741Z,2.35
2022-11-05T02:43:21.827Z,2.45
2022-11-05T02:46:43.035Z,1.90
2022-11-05T02:49:58.377Z,2.17
2022-11-05T02:53:20.031Z,2.10
2022-11-05T02:56:35.282Z,2.00
2022-11-05T02:59:38.205Z,2.10
2022-11-05T03:02:41.550Z,1.83
2022-11-05T03:06:00.540Z,1.77
2022-11-05T03:09:06.305Z,2.03
2022-11-05T03:12:27.592Z,1.92
2022-11-05T03:15:40.974Z,1.92
2022-11-05T03:18:55.103Z,1.60
2022-11-05T03:22:08.955Z,1.67
2022-11-05T03:25:16.593Z,1.75
2022-11-05T03:28:22.541Z,1.30
2022-11-05T03:31:25.751Z,1.30
2022-11-05T03:34:32.755Z,1.37
2022-11-05T03:37:38.135Z,1.10
2022-11-05T03:40:41.943Z,1.17
2022-11-05T03:43:48.561Z,0.82
2022-11-05T03:46:53.448Z,0.90
2022-11-05T03:50:12.161Z,0.67
2022-11-05T03:53:18.575Z,0.70
2022-11-05T03:56:28.139Z,0.75
2022-11-05T03:59:31.916Z,0.60
2022-11-05T04:02:35.238Z,0.60
2022-11-05T04:05:38.081Z,0.70
2022-11-05T04:08:59.564Z,1.10
2022-11-05T04:12:20.717Z,0.60
2022-11-05T04:15:23.644Z,0.70
2022-11-05T04:18:26.461Z,0.70
2022-11-05T04:21:47.784Z,0.70
2022-11-05T04:24:50.567Z,0.80
2022-11-05T04:27:53.544Z,0.70
2022-11-05T04:30:56.956Z,0.70
2022-11-05T04:33:59.855Z,0.73
2022-11-05T04:37:02.596Z,0.60
2022-11-05T04:40:06.079Z,0.50
2022-11-05T04:43:14.714Z,0.82
2022-11-05T04:46:18.242Z,0.60
2022-11-05T04:49:21.091Z,0.80
2022-11-05T04:52:23.895Z,0.80
2022-11-05T04:55:27.266Z,1.07
2022-11-05T04:58:30.321Z,1.10
2022-11-05T05:01:33.285Z,0.90
2022-11-05T05:04:36.298Z,1.00
2022-11-05T05:07:39.170Z,0.77
2022-11-05T05:10:42.284Z,1.00
2022-11-05T05:13:45.191Z,1.00
2022-11-05T05:16:48.036Z,1.20
2022-11-05T05:20:09.670Z,1.30
2022-11-05T05:23:12.842Z,1.63
2022-11-05T05:26:16.821Z,2.40
2022-11-05T05:29:19.836Z,2.85
2022-11-05T05:32:23.226Z,2.87
2022-11-05T05:35:25.978Z,2.92
2022-11-05T05:38:29.865Z,2.30
2022-11-05T05:41:33.042Z,2.20
2022-11-05T05:44:35.831Z,1.75
2022-11-05T05:47:38.926Z,1.23
2022-11-05T05:50:41.813Z,1.12
2022-11-05T05:53:44.768Z,1.27
2022-11-05T05:56:47.628Z,1.20
2022-11-05T05:59:50.741Z,1.10
2022-11-05T06:02:56.180Z,1.20
2022-11-05T06:06:10.375Z,1.08
2022-11-05T06:09:14.388Z,1.20
2022-11-05T06:12:17.138Z,1.10
2022-11-05T06:15:20.624Z,1.00
2022-11-05T06:18:23.378Z,1.00
2022-11-05T06:21:26.314Z,0.95
2022-11-05T06:24:29.155Z,0.80
2022-11-05T06:27:32.010Z,0.87
2022-11-05T06:30:35.049Z,1.10
2022-11-05T06:33:38.374Z,1.00
2022-11-05T06:36:41.356Z,0.95
2022-11-05T06:39:44.301Z,1.00
2022-11-05T06:42:47.501Z,0.90
2022-11-05T06:45:50.318Z,0.90
2022-11-05T06:48:53.398Z,1.12
2022-11-05T06:51:56.446Z,1.35
2022-11-05T06:55:00.338Z,1.33
2022-11-05T06:58:05.059Z,1.50
2022-11-05T07:01:09.974Z,1.40
2022-11-05T07:04:13.336Z,1.42
2022-11-05T07:07:16.207Z,1.17
2022-11-05T07:10:19.393Z,2.10
2022-11-05T07:13:22.408Z,1.40
2022-11-05T07:16:25.271Z,1.30
2022-11-05T07:19:28.358Z,1.20
2022-11-05T07:22:31.766Z,1.25
2022-11-05T07:25:35.608Z,1.30
2022-11-05T07:28:39.560Z,1.40
2022-11-05T07:31:44.927Z,1.67
2022-11-05T07:34:50.005Z,1.48
2022-11-05T07:37:57.905Z,1.73
2022-11-05T07:41:04.516Z,1.37
2022-11-05T07:44:09.036Z,1.23
2022-11-05T07:47:11.938Z,1.70
2022-11-05T07:50:16.529Z,1.83
2022-11-05T07:53:21.166Z,2.08
2022-11-05T07:56:24.156Z,1.40
2022-11-05T07:59:32.695Z,1.77
2022-11-05T08:02:39.898Z,2.10
2022-11-05T08:05:44.962Z,2.10
2022-11-05T08:08:47.976Z,2.42
2022-11-05T08:11:53.037Z,1.73
2022-11-05T08:14:56.201Z,2.13
2022-11-05T08:18:00.557Z,2.08
2022-11-05T08:21:05.141Z,2.00
2022-11-05T08:24:08.309Z,2.28
2022-11-05T08:27:11.284Z,1.93
2022-11-05T08:30:15.442Z,2.27
2022-11-05T08:33:18.751Z,2.45
2022-11-05T08:36:21.709Z,2.33
2022-11-05T08:39:25.886Z,2.03
2022-11-05T08:42:29.001Z,1.90
2022-11-05T08:45:31.966Z,2.20
2022-11-05T08:48:38.480Z,2.47
2022-11-05T08:51:46.479Z,2.40
2022-11-05T08:54:50.197Z,2.45
2022-11-05T08:58:00.094Z,2.50
2022-11-05T09:01:05.583Z,2.50
2022-11-05T09:04:08.907Z,2.42
2022-11-05T09:07:15.015Z,3.10
2022-11-05T09:10:18.887Z,2.55
2022-11-05T09:13:25.381Z,2.70
2022-11-05T09:16:30.453Z,2.40
2022-11-05T09:19:39.795Z,2.50
2022-11-05T09:22:43.678Z,2.20
2022-11-05T09:25:47.095Z,2.70
2022-11-05T09:28:50.309Z,3.00
2022-11-05T09:31:54.830Z,2.73
2022-11-05T09:34:57.714Z,2.80
2022-11-05T09:38:01.350Z,2.28
2022-11-05T09:41:05.607Z,2.75
2022-11-05T09:44:22.815Z,2.70
2022-11-05T09:47:30.634Z,2.70
2022-11-05T09:50:41.468Z,2.70
2022-11-05T09:53:45.760Z,2.70
2022-11-05T09:56:48.545Z,3.00
2022-11-05T09:59:57.559Z,3.10
2022-11-05T10:03:16.196Z,2.73
2022-11-05T10:06:24.296Z,2.58
2022-11-05T10:09:33.818Z,2.53
2022-11-05T10:12:42.774Z,2.30
2022-11-05T10:16:23.213Z,2.35
2022-11-05T10:19:31.172Z,2.30
2022-11-05T10:22:34.045Z,2.53
2022-11-05T10:25:40.007Z,2.55
2022-11-05T10:28:42.968Z,3.00
2022-11-05T10:31:45.911Z,2.40
2022-11-05T10:34:50.199Z,2.90
2022-11-05T10:37:56.378Z,3.12
2022-11-05T10:41:29.611Z,2.47
2022-11-05T10:44:53.759Z,2.22
2022-11-05T10:48:10.202Z,2.60
2022-11-05T10:51:13.163Z,2.50
2022-11-05T10:54:22.590Z,3.10
2022-11-05T10:57:36.401Z,2.37
2022-11-05T11:00:39.754Z,2.33
2022-11-05T11:03:48.493Z,2.90
2022-11-05T11:06:53.997Z,2.80
2022-11-05T11:09:57.177Z,2.87
2022-11-05T11:13:00.254Z,2.80
2022-11-05T11:16:16.406Z,2.47
2022-11-05T11:19:39.720Z,2.28
2022-11-05T11:22:42.531Z,2.07
2022-11-05T11:25:52.305Z,2.40
2022-11-05T11:29:36.482Z,2.08
2022-11-05T11:32:40.478Z,2.37
2022-11-05T11:35:46.370Z,2.40
2022-11-05T11:38:49.208Z,2.00
2022-11-05T11:41:54.665Z,2.28
2022-11-05T11:44:59.479Z,2.47
2022-11-05T11:48:06.330Z,1.90
2022-11-05T11:51:49.765Z,2.60
2022-11-05T11:54:53.443Z,2.30
2022-11-05T11:58:07.335Z,2.28
2022-11-05T12:01:34.130Z,2.22
2022-11-05T12:05:01.766Z,2.22
2022-11-05T12:08:45.367Z,2.70
2022-11-05T12:12:12.495Z,2.60
2022-11-05T12:15:39.617Z,2.17
2022-11-05T12:18:49.667Z,2.15
2022-11-05T12:22:02.734Z,2.45
2022-11-05T12:25:21.959Z,2.37
2022-11-05T12:29:17.251Z,2.30
2022-11-05T12:32:46.103Z,2.33
2022-11-05T12:36:00.496Z,2.37
2022-11-05T12:39:06.612Z,2.25
2022-11-05T12:42:24.401Z,2.20
2022-11-05T12:45:59.558Z,2.00
2022-11-05T12:49:31.303Z,2.30
2022-11-05T12:53:12.042Z,2.40
2022-11-05T12:56:36.489Z,2.40
2022-11-05T12:59:55.740Z,2.50
2022-11-05T13:03:22.832Z,2.27
2022-11-05T13:06:33.202Z,2.47
2022-11-05T13:09:42.250Z,2.42
2022-11-05T13:12:47.144Z,2.60
2022-11-05T13:16:00.036Z,2.40
2022-11-05T13:19:08.086Z,2.30
2022-11-05T13:22:30.714Z,2.30
2022-11-05T13:25:39.010Z,1.98
2022-11-05T13:28:58.102Z,2.12
2022-11-05T13:32:35.729Z,2.47
2022-11-05T13:35:45.828Z,2.10
2022-11-05T13:38:59.717Z,2.10
2022-11-05T13:42:05.743Z,2.00
2022-11-05T13:45:35.126Z,2.00
2022-11-05T13:48:56.535Z,1.60
2022-11-05T13:52:22.219Z,1.60
2022-11-05T13:55:37.022Z,1.70
2022-11-05T13:58:52.987Z,1.50
2022-11-05T14:02:02.108Z,1.90
2022-11-05T14:05:05.775Z,2.50
2022-11-05T14:08:11.456Z,2.93
2022-11-05T14:11:20.534Z,3.70
2022-11-05T14:14:27.958Z,2.70
2022-11-05T14:17:55.865Z,2.97
2022-11-05T14:21:04.037Z,2.40
2022-11-05T14:24:22.295Z,2.30
2022-11-05T14:27:37.313Z,2.97
2022-11-05T14:30:47.532Z,3.20
2022-11-05T14:34:10.410Z,2.78
2022-11-05T14:37:21.163Z,3.23
2022-11-05T14:40:33.356Z,2.40
2022-11-05T14:43:37.198Z,2.95
2022-11-05T14:46:42.305Z,2.70
2022-11-05T14:49:54.714Z,2.62
2022-11-05T14:53:10.689Z,2.28
2022-11-05T14:56:15.940Z,4.80
2022-11-05T14:59:24.936Z,2.55
2022-11-05T15:02:37.343Z,2.70
2022-11-05T15:05:50.333Z,3.00
2022-11-05T15:09:05.827Z,2.10
2022-11-05T15:12:19.900Z,2.00
2022-11-05T15:15:28.092Z,1.83
2022-11-05T15:18:39.180Z,2.40
2022-11-05T15:21:43.879Z,2.60
2022-11-05T15:24:49.541Z,2.60
2022-11-05T15:28:08.351Z,2.60
2022-11-05T15:31:16.336Z,1.90
2022-11-05T15:34:23.999Z,1.35
2022-11-05T15:37:29.014Z,2.10
2022-11-05T15:40:33.459Z,2.20
2022-11-05T15:43:36.320Z,1.70
2022-11-05T15:46:39.390Z,1.90
2022-11-05T15:49:44.812Z,1.70
2022-11-05T15:52:54.139Z,1.62
2022-11-05T15:56:01.094Z,2.63
2022-11-05T15:59:07.051Z,3.13
2022-11-05T16:02:24.171Z,1.50
2022-11-05T16:05:30.736Z,1.50
2022-11-05T16:08:34.990Z,1.70
2022-11-05T16:11:40.823Z,1.73
2022-11-05T16:14:44.493Z,2.10
2022-11-05T16:17:58.033Z,1.30
2022-11-05T16:21:08.481Z,1.20
2022-11-05T16:24:29.080Z,1.42
2022-11-05T16:27:33.976Z,1.25
2022-11-05T16:30:38.281Z,1.50
2022-11-05T16:33:45.809Z,1.25
2022-11-05T16:36:49.498Z,1.30
2022-11-05T16:39:54.015Z,2.00
2022-11-05T16:43:09.696Z,2.70
2022-11-05T16:46:15.892Z,2.10
2022-11-05T16:49:19.310Z,1.85
2022-11-05T16:52:22.821Z,1.33
2022-11-05T16:55:25.708Z,1.37
2022-11-05T16:58:29.392Z,1.20
2022-11-05T17:01:32.981Z,1.00
2022-11-05T17:04:37.063Z,1.20
2022-11-05T17:07:43.263Z,1.00
2022-11-05T17:10:46.911Z,1.10
2022-11-05T17:13:50.271Z,1.35
2022-11-05T17:16:53.518Z,1.20
2022-11-05T17:19:56.894Z,1.23
2022-11-05T17:23:03.577Z,1.00
2022-11-05T17:26:11.330Z,1.25
2022-11-05T17:29:14.758Z,1.40
2022-11-05T17:32:18.073Z,1.50
2022-11-05T17:35:21.571Z,2.05
2022-11-05T17:38:26.111Z,2.20
2022-11-05T17:41:29.148Z,1.67
2022-11-05T17:44:32.271Z,1.70
2022-11-05T17:47:35.563Z,1.50
2022-11-05T17:50:51.744Z,1.12
2022-11-05T17:53:54.770Z,1.80
2022-11-05T17:56:58.997Z,1.10
2022-11-05T18:00:04.194Z,1.33
2022-11-05T18:03:07.404Z,1.70
2022-11-05T18:06:10.727Z,1.30
2022-11-05T18:09:15.272Z,1.20
2022-11-05T18:12:22.289Z,1.35
2022-11-05T18:15:26.487Z,1.73
2022-11-05T18:18:30.418Z,1.30
2022-11-05T18:21:34.197Z,1.30
2022-11-05T18:24:37.384Z,1.40
2022-11-05T18:27:40.840Z,1.27
2022-11-05T18:30:44.033Z,1.10
2022-11-05T18:33:48.504Z,1.40
2022-11-05T18:36:56.361Z,1.50
2022-11-05T18:39:59.648Z,1.20
2022-11-05T18:43:02.701Z,1.20
2022-11-05T18:46:15.629Z,1.00
2022-11-05T18:49:30.351Z,1.23
2022-11-05T18:52:33.963Z,1.17
2022-11-05T18:55:39.987Z,0.93
2022-11-05T18:58:43.548Z,1.20
2022-11-05T19:01:47.867Z,1.37
2022-11-05T19:05:21.919Z,1.27
2022-11-05T19:08:16.247Z,1.10
2022-11-05T19:11:22.089Z,1.58
2022-11-05T19:14:25.393Z,1.20
2022-11-05T19:17:29.628Z,1.30
2022-11-05T19:20:37.834Z,1.33
2022-11-05T19:23:43.080Z,1.20
2022-11-05T19:26:47.767Z,1.02
2022-11-05T19:29:51.006Z,1.10
2022-11-05T19:32:54.101Z,1.13
2022-11-05T19:36:01.396Z,1.73
2022-11-05T19:39:11.589Z,1.20
2022-11-05T19:42:15.176Z,1.70
2022-11-05T19:45:45.565Z,1.45
2022-11-05T19:48:41.934Z,1.37
2022-11-05T19:51:45.812Z,1.30
2022-11-05T19:54:49.396Z,1.17
2022-11-05T19:57:55.157Z,1.35
2022-11-05T20:00:58.548Z,1.40
2022-11-05T20:04:03.164Z,1.43
2022-11-05T20:07:07.743Z,1.10
2022-11-05T20:10:11.855Z,1.30
2022-11-05T20:13:19.796Z,1.10
2022-11-05T20:16:28.901Z,1.20
2022-11-05T20:19:32.429Z,1.20
2022-11-05T20:22:35.645Z,1.10
2022-11-05T20:25:38.935Z,1.33
2022-11-05T20:28:44.021Z,1.42
2022-11-05T20:31:46.978Z,1.37
2022-11-05T20:34:53.377Z,1.30
2022-11-05T20:37:56.628Z,1.50
2022-11-05T20:41:08.300Z,1.20
2022-11-05T20:44:11.160Z,1.20
2022-11-05T20:47:14.263Z,1.50
2022-11-05T20:50:17.454Z,1.58
2022-11-05T20:53:21.048Z,1.70
2022-11-05T20:56:32.866Z,1.65
2022-11-05T20:59:35.909Z,1.50
2022-11-05T21:02:41.736Z,1.40
2022-11-05T21:05:49.690Z,1.60
2022-11-05T21:08:54.147Z,1.13
2022-11-05T21:12:12.627Z,1.70
2022-11-05T21:15:15.634Z,1.45
2022-11-05T21:18:24.375Z,1.23
2022-11-05T21:21:27.544Z,1.52
2022-11-05T21:24:32.368Z,1.63
2022-11-05T21:27:36.476Z,1.40
2022-11-05T21:30:45.840Z,1.70
2022-11-05T21:33:53.979Z,1.67
2022-11-05T21:37:01.421Z,2.00
2022-11-05T21:40:05.186Z,1.87
2022-11-05T21:43:12.205Z,1.62
2022-11-05T21:46:15.834Z,1.60
2022-11-05T21:49:19.550Z,1.70
2022-11-05T21:52:41.005Z,1.90
2022-11-05T21:56:02.640Z,1.77
2022-11-05T21:59:25.132Z,1.40
2022-11-05T22:02:31.284Z,2.00
2022-11-05T22:05:34.217Z,2.10
2022-11-05T22:08:37.186Z,1.70
2022-11-05T22:11:42.997Z,1.73
2022-11-05T22:14:46.764Z,1.80
2022-11-05T22:17:52.698Z,1.70
2022-11-05T22:20:55.771Z,1.60
2022-11-05T22:23:58.884Z,2.00
2022-11-05T22:27:04.633Z,1.83
2022-11-05T22:30:07.736Z,1.73
2022-11-05T22:33:11.052Z,1.50
2022-11-05T22:36:14.018Z,1.70
2022-11-05T22:39:17.436Z,1.73
2022-11-05T22:42:21.177Z,2.43
2022-11-05T22:45:24.259Z,2.17
2022-11-05T22:48:27.143Z,1.50
2022-11-05T22:51:32.573Z,1.52
2022-11-05T22:54:39.259Z,1.80
2022-11-05T22:57:42.536Z,1.90
2022-11-05T23:00:45.391Z,2.08
2022-11-05T23:03:49.641Z,1.92
2022-11-05T23:07:10.953Z,1.95
2022-11-05T23:10:32.400Z,1.97
2022-11-05T23:13:35.535Z,1.70
2022-11-05T23:16:57.123Z,1.95
2022-11-05T23:20:11.870Z,2.05
2022-11-05T23:23:33.345Z,2.00
2022-11-05T23:26:53.012Z,2.10
2022-11-05T23:30:00.349Z,1.87
2022-11-05T23:33:03.023Z,2.05
2022-11-05T23:36:24.783Z,1.92
2022-11-05T23:39:30.945Z,1.67
2022-11-05T23:42:52.336Z,2.30
2022-11-05T23:45:55.097Z,1.90
2022-11-05T23:49:01.044Z,1.90
2022-11-05T23:52:04.096Z,2.03
2022-11-05T23:55:07.314Z,1.80
2022-11-05T23:58:11.239Z,1.80
